createdAt,value
2018-09-09T00:00:55.697Z,64.14
2018-09-09T00:01:55.664Z,64.48
2018-09-09T00:02:55.987Z,64.19
2018-09-09T00:03:56.260Z,64.76
2018-09-09T00:04:55.688Z,64.57
2018-09-09T00:05:56.046Z,64.95
2018-09-09T00:06:55.840Z,65.7
2018-09-09T00:07:55.645Z,65.17
2018-09-09T00:08:55.868Z,64.8
2018-09-09T00:09:55.796Z,64.47
2018-09-09T00:10:55.640Z,64.79
2018-09-09T00:11:55.983Z,65.24
2018-09-09T00:12:55.771Z,65.13
2018-09-09T00:13:55.776Z,64.55
2018-09-09T00:14:55.715Z,64.55
2018-09-09T00:15:55.735Z,64.1
2018-09-09T00:16:55.625Z,64.92
2018-09-09T00:17:55.876Z,64.53
2018-09-09T00:18:55.651Z,64.3
2018-09-09T00:19:55.655Z,64.53
2018-09-09T00:20:55.651Z,64.43
2018-09-09T00:21:55.911Z,64.56
2018-09-09T00:22:55.697Z,64.38
2018-09-09T00:23:55.858Z,63.96
2018-09-09T00:24:55.664Z,64.21
2018-09-09T00:25:55.768Z,64.86
2018-09-09T00:26:55.640Z,64.34
2018-09-09T00:27:55.678Z,64.38
2018-09-09T00:28:55.660Z,64.2
2018-09-09T00:29:55.651Z,64.29
2018-09-09T00:30:55.632Z,64.41
2018-09-09T00:31:55.638Z,63.85
2018-09-09T00:32:55.634Z,63.93
2018-09-09T00:33:55.619Z,63.77
2018-09-09T00:34:55.966Z,63.74
2018-09-09T00:35:55.615Z,64.39
2018-09-09T00:36:55.671Z,64.62
2018-09-09T00:37:55.625Z,64.45
2018-09-09T00:38:55.690Z,64.94
2018-09-09T00:39:55.692Z,64.83
2018-09-09T00:40:55.627Z,64.17
2018-09-09T00:41:55.639Z,64.52
2018-09-09T00:42:55.663Z,65.32
2018-09-09T00:43:55.630Z,65.41
2018-09-09T00:44:55.655Z,65.03
2018-09-09T00:45:55.620Z,65.29
2018-09-09T00:46:55.680Z,65.09
2018-09-09T00:47:56.089Z,64.8
2018-09-09T00:48:55.617Z,65.12
2018-09-09T00:49:55.938Z,64.82
2018-09-09T00:50:55.735Z,64.88
2018-09-09T00:51:55.612Z,64.42
2018-09-09T00:52:55.638Z,64.95
2018-09-09T00:53:55.688Z,64.42
2018-09-09T00:54:55.651Z,64.43
2018-09-09T00:55:55.639Z,65.08
2018-09-09T00:56:55.739Z,64.69
2018-09-09T00:57:55.608Z,64.32
2018-09-09T00:58:55.632Z,64.45
2018-09-09T00:59:55.746Z,64.28
2018-09-09T01:00:55.625Z,64.3
2018-09-09T01:01:55.604Z,64.76
2018-09-09T01:02:55.773Z,64.41
2018-09-09T01:03:55.672Z,64.7
2018-09-09T01:04:55.686Z,64.31
2018-09-09T01:05:55.782Z,64.21
2018-09-09T01:06:55.624Z,64.24
2018-09-09T01:07:55.728Z,63.94
2018-09-09T01:08:55.617Z,64.37
2018-09-09T01:09:56.059Z,64.31
2018-09-09T01:10:55.624Z,64.24
2018-09-09T01:11:56.149Z,64.45
2018-09-09T01:12:55.649Z,64.41
2018-09-09T01:13:55.686Z,64.69
2018-09-09T01:14:56.092Z,64.77
2018-09-09T01:15:56.182Z,64.73
2018-09-09T01:16:55.642Z,64.41
2018-09-09T01:17:56.190Z,64.55
2018-09-09T01:18:55.793Z,64.92
2018-09-09T01:19:55.903Z,64.77
2018-09-09T01:20:56.054Z,64.2
2018-09-09T01:21:56.145Z,64.31
2018-09-09T01:22:55.679Z,64.6
2018-09-09T01:23:55.649Z,64.29
2018-09-09T01:24:55.727Z,64.29
2018-09-09T01:25:55.632Z,64.58
2018-09-09T01:26:55.640Z,64.37
2018-09-09T01:27:55.613Z,64.47
2018-09-09T01:28:55.621Z,64.52
2018-09-09T01:29:55.747Z,64.66
2018-09-09T01:30:55.622Z,65
2018-09-09T01:31:55.832Z,64.71
2018-09-09T01:32:55.635Z,64.92
2018-09-09T01:33:55.599Z,65.57
2018-09-09T01:34:55.997Z,64.75
2018-09-09T01:35:55.611Z,65.43
2018-09-09T01:36:55.662Z,65.38
2018-09-09T01:37:55.632Z,65.16
2018-09-09T01:38:55.601Z,65.21
2018-09-09T01:39:55.689Z,64.94
2018-09-09T01:40:55.709Z,65.11
2018-09-09T01:41:55.629Z,64.71
2018-09-09T01:42:55.789Z,64.79
2018-09-09T01:43:56.170Z,65.22
2018-09-09T01:44:55.968Z,65.07
2018-09-09T01:45:55.604Z,65.15
2018-09-09T01:46:55.673Z,65.51
2018-09-09T01:47:55.601Z,64.82
2018-09-09T01:48:55.619Z,64.87
2018-09-09T01:49:55.765Z,65.25
2018-09-09T01:50:55.609Z,65.42
2018-09-09T01:51:55.696Z,65.35
2018-09-09T01:52:55.672Z,64.95
2018-09-09T01:53:55.613Z,65.16
2018-09-09T01:54:55.614Z,65.1
2018-09-09T01:55:55.604Z,65.38
2018-09-09T01:56:55.731Z,65.13
2018-09-09T01:57:55.655Z,64.98
2018-09-09T01:58:55.932Z,65.45
2018-09-09T01:59:55.605Z,65.04
2018-09-09T02:00:55.610Z,65.54
2018-09-09T02:01:55.661Z,65.07
2018-09-09T02:02:55.902Z,65.58
2018-09-09T02:03:55.614Z,65.33
2018-09-09T02:04:55.670Z,65.39
2018-09-09T02:05:55.640Z,65.45
2018-09-09T02:06:55.684Z,65.64
2018-09-09T02:07:55.987Z,65.65
2018-09-09T02:08:55.669Z,65.85
2018-09-09T02:09:55.906Z,65.49
2018-09-09T02:10:55.713Z,65.72
2018-09-09T02:11:55.959Z,66
2018-09-09T02:12:55.750Z,65.8
2018-09-09T02:13:55.720Z,65.65
2018-09-09T02:14:55.746Z,65.7
2018-09-09T02:15:56.206Z,66.1
2018-09-09T02:16:55.802Z,65.98
2018-09-09T02:17:56.018Z,65.59
2018-09-09T02:18:55.641Z,65.57
2018-09-09T02:19:55.634Z,65.59
2018-09-09T02:20:55.628Z,65.73
2018-09-09T02:21:55.597Z,65.78
2018-09-09T02:22:55.650Z,65.62
2018-09-09T02:23:55.712Z,66.06
2018-09-09T02:24:56.053Z,66.29
2018-09-09T02:25:55.682Z,65.72
2018-09-09T02:26:55.666Z,65.68
2018-09-09T02:27:55.591Z,66.03
2018-09-09T02:28:56.066Z,66.05
2018-09-09T02:29:55.661Z,66.26
2018-09-09T02:30:55.703Z,66.08
2018-09-09T02:31:55.637Z,66.32
2018-09-09T02:32:55.582Z,66.08
2018-09-09T02:33:55.593Z,66.32
2018-09-09T02:34:55.598Z,66.58
2018-09-09T02:35:55.602Z,66.26
2018-09-09T02:36:55.620Z,66.24
2018-09-09T02:37:56.040Z,65.79
2018-09-09T02:38:55.696Z,66.2
2018-09-09T02:39:55.632Z,66.23
2018-09-09T02:40:55.680Z,66.76
2018-09-09T02:41:55.616Z,66.25
2018-09-09T02:42:55.626Z,66.17
2018-09-09T02:43:55.970Z,66.14
2018-09-09T02:44:55.984Z,66.46
2018-09-09T02:45:55.666Z,66.38
2018-09-09T02:46:55.661Z,66.43
2018-09-09T02:47:55.657Z,66.62
2018-09-09T02:48:55.569Z,67
2018-09-09T02:49:55.595Z,66.58
2018-09-09T02:50:55.619Z,67.24
2018-09-09T02:51:55.696Z,67.88
2018-09-09T02:52:55.595Z,67.26
2018-09-09T02:53:55.694Z,67.33
2018-09-09T02:54:55.666Z,67.39
2018-09-09T02:55:55.572Z,67.41
2018-09-09T02:56:55.612Z,67.79
2018-09-09T02:57:55.768Z,68.11
2018-09-09T02:58:55.750Z,67.7
2018-09-09T02:59:55.634Z,67.99
2018-09-09T03:00:55.682Z,67.58
2018-09-09T03:01:55.685Z,67.62
2018-09-09T03:02:55.562Z,67.25
2018-09-09T03:03:55.962Z,67.08
2018-09-09T03:04:55.572Z,67.95
2018-09-09T03:05:55.704Z,67.24
2018-09-09T03:06:55.571Z,67.36
2018-09-09T03:07:55.596Z,66.89
2018-09-09T03:08:55.646Z,67.94
2018-09-09T03:09:55.571Z,67.26
2018-09-09T03:10:55.594Z,67.48
2018-09-09T03:11:55.585Z,67.43
2018-09-09T03:12:55.562Z,67.52
2018-09-09T03:13:55.681Z,67.69
2018-09-09T03:14:55.737Z,68.18
2018-09-09T03:15:55.579Z,68.03
2018-09-09T03:16:55.593Z,67.4
2018-09-09T03:17:55.576Z,68.29
2018-09-09T03:18:55.576Z,67.88
2018-09-09T03:19:55.566Z,67.85
2018-09-09T03:20:55.556Z,67.55
2018-09-09T03:21:55.553Z,67.98
2018-09-09T03:22:55.554Z,68.17
2018-09-09T03:23:55.565Z,68.35
2018-09-09T03:24:55.735Z,67.84
2018-09-09T03:25:55.567Z,67.87
2018-09-09T03:26:55.579Z,68.12
2018-09-09T03:27:55.665Z,68
2018-09-09T03:28:55.965Z,67.55
2018-09-09T03:29:55.733Z,67.75
2018-09-09T03:30:55.617Z,67.67
2018-09-09T03:31:55.613Z,68.53
2018-09-09T03:32:55.551Z,68.05
2018-09-09T03:33:55.680Z,68.97
2018-09-09T03:34:55.558Z,67.99
2018-09-09T03:35:55.575Z,69.01
2018-09-09T03:36:56.128Z,68.62
2018-09-09T03:37:55.559Z,69.08
2018-09-09T03:38:55.598Z,68.54
2018-09-09T03:39:55.560Z,68.97
2018-09-09T03:40:55.549Z,69.51
2018-09-09T03:41:55.567Z,69.23
2018-09-09T03:42:55.630Z,68.81
2018-09-09T03:43:55.829Z,68.72
2018-09-09T03:44:55.866Z,68.45
2018-09-09T03:45:55.667Z,68.78
2018-09-09T03:46:55.547Z,69.43
2018-09-09T03:47:55.562Z,69.24
2018-09-09T03:48:55.558Z,68.87
2018-09-09T03:49:55.538Z,69.38
2018-09-09T03:50:55.743Z,69.48
2018-09-09T03:51:55.594Z,69.04
2018-09-09T03:52:55.728Z,69.75
2018-09-09T03:53:55.577Z,69.91
2018-09-09T03:54:55.694Z,70.04
2018-09-09T03:55:55.594Z,69.77
2018-09-09T03:56:55.574Z,70.51
2018-09-09T03:57:55.661Z,70.08
2018-09-09T03:58:55.938Z,69.83
2018-09-09T03:59:55.577Z,70.19
2018-09-09T04:00:55.654Z,69.78
2018-09-09T04:01:55.556Z,70.11
2018-09-09T04:02:55.597Z,70.24
2018-09-09T04:03:55.969Z,70.52
2018-09-09T04:04:56.094Z,69.85
2018-09-09T04:05:55.552Z,70.01
2018-09-09T04:06:55.566Z,70.33
2018-09-09T04:07:55.593Z,70.02
2018-09-09T04:08:55.580Z,70.92
2018-09-09T04:09:55.671Z,70.65
2018-09-09T04:10:55.660Z,70.25
2018-09-09T04:11:55.615Z,70.67
2018-09-09T04:12:55.549Z,70.96
2018-09-09T04:13:55.628Z,70.6
2018-09-09T04:14:55.578Z,69.93
2018-09-09T04:15:55.711Z,70.24
2018-09-09T04:16:55.551Z,69.6
2018-09-09T04:17:55.609Z,70.43
2018-09-09T04:18:55.775Z,70.47
2018-09-09T04:19:55.563Z,70.02
2018-09-09T04:20:55.570Z,69.66
2018-09-09T04:21:55.590Z,70.17
2018-09-09T04:22:55.593Z,70.4
2018-09-09T04:23:55.589Z,70.07
2018-09-09T04:24:56.008Z,69.81
2018-09-09T04:25:55.596Z,70.17
2018-09-09T04:26:55.576Z,70.27
2018-09-09T04:27:55.563Z,70.17
2018-09-09T04:28:55.565Z,69.83
2018-09-09T04:29:55.618Z,70.4
2018-09-09T04:30:55.638Z,70.99
2018-09-09T04:31:55.594Z,70.52
2018-09-09T04:32:55.591Z,70.44
2018-09-09T04:33:55.571Z,70.08
2018-09-09T04:34:56.180Z,70.02
2018-09-09T04:35:55.587Z,70.68
2018-09-09T04:36:55.601Z,70.4
2018-09-09T04:37:55.590Z,70.37
2018-09-09T04:38:55.565Z,70.72
2018-09-09T04:39:55.629Z,70.12
2018-09-09T04:40:55.567Z,71.29
2018-09-09T04:41:55.606Z,71.26
2018-09-09T04:42:55.564Z,70.81
2018-09-09T04:43:55.636Z,70.76
2018-09-09T04:44:55.575Z,71.42
2018-09-09T04:45:55.581Z,70.43
2018-09-09T04:46:55.634Z,70.86
2018-09-09T04:47:55.586Z,70.81
2018-09-09T04:48:55.643Z,70.55
2018-09-09T04:49:55.592Z,70.42
2018-09-09T04:50:55.641Z,70.43
2018-09-09T04:51:55.567Z,70.73
2018-09-09T04:52:55.824Z,70.63
2018-09-09T04:53:55.566Z,70.94
2018-09-09T04:54:55.588Z,71.12
2018-09-09T04:55:55.608Z,71.12
2018-09-09T04:56:55.717Z,70.77
2018-09-09T04:57:55.562Z,70.37
2018-09-09T04:58:56.070Z,70.85
2018-09-09T04:59:55.654Z,70.58
2018-09-09T05:00:55.791Z,70.73
2018-09-09T05:01:55.690Z,70.78
2018-09-09T05:02:55.580Z,70.9
2018-09-09T05:03:55.590Z,70.85
2018-09-09T05:04:55.613Z,71.26
2018-09-09T05:05:55.868Z,71.28
2018-09-09T05:06:55.594Z,71.73
2018-09-09T05:07:55.624Z,71.13
2018-09-09T05:08:55.702Z,71.18
2018-09-09T05:09:56.113Z,71.45
2018-09-09T05:10:55.633Z,71.56
2018-09-09T05:11:55.645Z,71.28
2018-09-09T05:12:55.711Z,71.72
2018-09-09T05:13:55.790Z,72.02
2018-09-09T05:14:55.634Z,71.5
2018-09-09T05:15:55.979Z,71.05
2018-09-09T05:16:55.593Z,71.36
2018-09-09T05:17:55.603Z,71.02
2018-09-09T05:18:55.609Z,71.37
2018-09-09T05:19:55.662Z,70.93
2018-09-09T05:20:55.627Z,70.88
2018-09-09T05:21:55.715Z,71
2018-09-09T05:22:56.096Z,70.95
2018-09-09T05:23:55.629Z,71.45
2018-09-09T05:24:55.879Z,70.81
2018-09-09T05:25:55.718Z,70.77
2018-09-09T05:26:55.636Z,71.12
2018-09-09T05:27:55.626Z,71.07
2018-09-09T05:28:55.597Z,70.72
2018-09-09T05:29:55.598Z,71
2018-09-09T05:30:55.666Z,70.72
2018-09-09T05:31:55.604Z,71.18
2018-09-09T05:32:55.961Z,70.81
2018-09-09T05:33:55.658Z,70.92
2018-09-09T05:34:55.599Z,70.94
2018-09-09T05:35:55.717Z,70.85
2018-09-09T05:36:55.657Z,71.16
2018-09-09T05:37:55.725Z,71.06
2018-09-09T05:38:55.797Z,71.25
2018-09-09T05:39:56.350Z,71.23
2018-09-09T05:40:55.641Z,71.55
2018-09-09T05:41:55.722Z,71.33
2018-09-09T05:42:55.694Z,71.48
2018-09-09T05:43:55.898Z,71.51
2018-09-09T05:44:55.621Z,71.89
2018-09-09T05:45:55.630Z,71.84
2018-09-09T05:46:55.922Z,71.8
2018-09-09T05:47:55.693Z,71.73
2018-09-09T05:48:55.600Z,71.69
2018-09-09T05:49:55.780Z,71.47
2018-09-09T05:50:55.645Z,71.39
2018-09-09T05:51:56.027Z,71.67
2018-09-09T05:52:55.659Z,71.36
2018-09-09T05:53:55.781Z,71.15
2018-09-09T05:54:55.648Z,71.56
2018-09-09T05:55:56.063Z,71.26
2018-09-09T05:56:55.620Z,71.65
2018-09-09T05:57:55.616Z,71.48
2018-09-09T05:58:55.650Z,71.16
2018-09-09T05:59:55.619Z,71.6
2018-09-09T06:00:55.641Z,71.07
2018-09-09T06:01:55.633Z,71.18
2018-09-09T06:02:55.617Z,71.18
2018-09-09T06:03:55.609Z,71.38
2018-09-09T06:04:55.632Z,71.49
2018-09-09T06:05:55.652Z,71.07
2018-09-09T06:06:55.615Z,71.41
2018-09-09T06:07:56.242Z,70.77
2018-09-09T06:08:55.624Z,70.64
2018-09-09T06:09:55.610Z,70.53
2018-09-09T06:10:55.614Z,71.11
2018-09-09T06:11:55.717Z,70.56
2018-09-09T06:12:55.724Z,70.99
2018-09-09T06:13:55.666Z,71.41
2018-09-09T06:14:55.981Z,71
2018-09-09T06:15:55.733Z,71.23
2018-09-09T06:16:55.647Z,71.08
2018-09-09T06:17:55.646Z,70.93
2018-09-09T06:18:55.631Z,70.62
2018-09-09T06:19:55.678Z,70.77
2018-09-09T06:20:55.702Z,70.54
2018-09-09T06:21:55.635Z,70.54
2018-09-09T06:22:56.343Z,71.03
2018-09-09T06:23:55.635Z,70.84
2018-09-09T06:24:55.951Z,71.25
2018-09-09T06:25:55.645Z,70.95
2018-09-09T06:26:55.623Z,70.39
2018-09-09T06:27:55.641Z,71.07
2018-09-09T06:28:56.174Z,70.87
2018-09-09T06:29:55.678Z,70.63
2018-09-09T06:30:55.646Z,70.37
2018-09-09T06:31:55.858Z,70.45
2018-09-09T06:32:55.678Z,70.56
2018-09-09T06:33:55.986Z,70.58
2018-09-09T06:34:59.091Z,70.21
2018-09-09T06:35:55.641Z,70.21
2018-09-09T06:36:56.030Z,69.82
2018-09-09T06:37:55.648Z,70.84
2018-09-09T06:38:55.675Z,70.81
2018-09-09T06:39:55.646Z,70.79
2018-09-09T06:40:55.831Z,70.58
2018-09-09T06:41:55.727Z,70.36
2018-09-09T06:42:55.744Z,70.05
2018-09-09T06:43:55.640Z,70.05
2018-09-09T06:44:55.651Z,70.06
2018-09-09T06:45:55.699Z,70.17
2018-09-09T06:46:56.048Z,70.07
2018-09-09T06:47:55.724Z,70.19
2018-09-09T06:48:55.665Z,70.07
2018-09-09T06:49:55.660Z,70.01
2018-09-09T06:50:55.668Z,69.93
2018-09-09T06:51:55.725Z,69.65
2018-09-09T06:52:55.675Z,69.53
2018-09-09T06:53:55.763Z,69.75
2018-09-09T06:54:55.691Z,69.49
2018-09-09T06:55:55.664Z,69.29
2018-09-09T06:56:55.685Z,69.31
2018-09-09T06:57:55.677Z,69.29
2018-09-09T06:58:56.075Z,69.05
2018-09-09T06:59:55.871Z,69.09
2018-09-09T07:00:55.685Z,68.92
2018-09-09T07:01:56.103Z,68.85
2018-09-09T07:02:55.675Z,68.71
2018-09-09T07:03:56.308Z,68.72
2018-09-09T07:04:55.919Z,68.71
2018-09-09T07:05:55.673Z,68.42
2018-09-09T07:06:55.689Z,68.2
2018-09-09T07:07:55.881Z,68.32
2018-09-09T07:08:55.668Z,68.25
2018-09-09T07:09:55.862Z,67.92
2018-09-09T07:10:56.167Z,67.98
2018-09-09T07:11:55.885Z,67.98
2018-09-09T07:12:55.730Z,67.94
2018-09-09T07:13:55.995Z,67.8
2018-09-09T07:14:55.658Z,67.71
2018-09-09T07:15:55.712Z,67.3
2018-09-09T07:16:55.670Z,67.41
2018-09-09T07:17:55.660Z,67.2
2018-09-09T07:18:55.660Z,67.03
2018-09-09T07:19:55.669Z,66.98
2018-09-09T07:20:55.673Z,67.16
2018-09-09T07:21:55.677Z,67.21
2018-09-09T07:22:55.682Z,67.17
2018-09-09T07:23:55.651Z,67.1
2018-09-09T07:24:55.673Z,67.28
2018-09-09T07:25:55.680Z,67.44
2018-09-09T07:26:56.627Z,67.11
2018-09-09T07:27:55.683Z,67.32
2018-09-09T07:28:55.756Z,66.73
2018-09-09T07:29:55.657Z,66.87
2018-09-09T07:30:55.734Z,66.73
2018-09-09T07:31:55.706Z,66.81
2018-09-09T07:32:55.728Z,66.96
2018-09-09T07:33:56.075Z,66.79
2018-09-09T07:34:55.936Z,66.29
2018-09-09T07:35:55.681Z,66.08
2018-09-09T07:36:55.697Z,65.65
2018-09-09T07:37:55.870Z,65.57
2018-09-09T07:38:55.712Z,65.25
2018-09-09T07:39:55.753Z,65.32
2018-09-09T07:40:55.658Z,65.08
2018-09-09T07:41:56.262Z,65.36
2018-09-09T07:42:55.758Z,65.17
2018-09-09T07:43:56.041Z,64.92
2018-09-09T07:44:55.845Z,65.3
2018-09-09T07:45:55.755Z,65.17
2018-09-09T07:46:55.904Z,65.25
2018-09-09T07:47:55.700Z,65.45
2018-09-09T07:48:55.756Z,65.6
2018-09-09T07:49:55.704Z,65.51
2018-09-09T07:50:56.061Z,65.62
2018-09-09T07:51:55.691Z,65.35
2018-09-09T07:52:55.695Z,65.48
2018-09-09T07:53:56.431Z,65.6
2018-09-09T07:54:55.827Z,65.14
2018-09-09T07:55:55.745Z,65.3
2018-09-09T07:56:55.694Z,65.39
2018-09-09T07:57:56.175Z,65
2018-09-09T07:58:55.761Z,64.86
2018-09-09T07:59:55.671Z,64.46
2018-09-09T08:00:55.809Z,64.58
2018-09-09T08:01:55.721Z,64.54
2018-09-09T08:02:55.723Z,64.8
2018-09-09T08:03:55.677Z,64.64
2018-09-09T08:04:55.695Z,64.07
2018-09-09T08:05:55.814Z,64.07
2018-09-09T08:06:55.777Z,64.23
2018-09-09T08:07:55.709Z,64.28
2018-09-09T08:08:55.690Z,64.49
2018-09-09T08:09:55.686Z,64.21
2018-09-09T08:10:55.869Z,64.03
2018-09-09T08:11:55.781Z,64.03
2018-09-09T08:12:55.737Z,64.17
2018-09-09T08:13:55.753Z,64.22
2018-09-09T08:14:55.711Z,64.18
2018-09-09T08:15:55.679Z,64.11
2018-09-09T08:16:55.719Z,64.26
2018-09-09T08:17:55.691Z,64.23
2018-09-09T08:18:56.105Z,64.59
2018-09-09T08:19:56.320Z,64.3
2018-09-09T08:20:55.697Z,64.45
2018-09-09T08:21:56.118Z,64.11
2018-09-09T08:22:55.729Z,64.32
2018-09-09T08:23:55.714Z,63.66
2018-09-09T08:24:55.946Z,63.69
2018-09-09T08:25:55.920Z,63.89
2018-09-09T08:26:55.890Z,64.05
2018-09-09T08:27:55.736Z,64.08
2018-09-09T08:28:55.944Z,63.83
2018-09-09T08:29:55.828Z,64.13
2018-09-09T08:30:55.734Z,64.36
2018-09-09T08:31:56.118Z,64.47
2018-09-09T08:32:55.726Z,64.18
2018-09-09T08:33:55.697Z,64.22
2018-09-09T08:34:56.034Z,64.08
2018-09-09T08:35:55.697Z,64.11
2018-09-09T08:36:55.821Z,64.16
2018-09-09T08:37:55.951Z,64.1
2018-09-09T08:38:55.709Z,64.22
2018-09-09T08:39:55.712Z,64.36
2018-09-09T08:40:55.761Z,64.24
2018-09-09T08:41:55.699Z,64.08
2018-09-09T08:42:55.896Z,63.97
2018-09-09T08:43:55.702Z,63.88
2018-09-09T08:44:55.743Z,63.58
2018-09-09T08:45:55.709Z,63.74
2018-09-09T08:46:55.707Z,64
2018-09-09T08:47:55.738Z,64.01
2018-09-09T08:48:55.702Z,63.73
2018-09-09T08:49:55.725Z,63.77
2018-09-09T08:50:55.713Z,63.59
2018-09-09T08:51:55.747Z,63.7
2018-09-09T08:52:55.782Z,63.86
2018-09-09T08:53:55.792Z,64.41
2018-09-09T08:54:55.713Z,64.25
2018-09-09T08:55:55.916Z,63.81
2018-09-09T08:56:55.802Z,62.97
2018-09-09T08:57:55.759Z,63.26
2018-09-09T08:58:55.720Z,63.02
2018-09-09T08:59:55.710Z,62.98
2018-09-09T09:00:55.781Z,63.16
2018-09-09T09:01:55.702Z,63.01
2018-09-09T09:02:55.733Z,63.08
2018-09-09T09:04:02.967Z,63.47
2018-09-09T09:04:55.912Z,63.75
2018-09-09T09:05:55.949Z,63.65
2018-09-09T09:06:55.988Z,63.59
2018-09-09T09:07:55.834Z,63.49
2018-09-09T09:08:56.508Z,62.92
2018-09-09T09:09:55.744Z,63.12
2018-09-09T09:10:55.767Z,62.89
2018-09-09T09:11:55.771Z,62.97
2018-09-09T09:12:55.865Z,63.07
2018-09-09T09:13:56.200Z,63.01
2018-09-09T09:14:55.732Z,62.57
2018-09-09T09:15:56.005Z,62.75
2018-09-09T09:16:55.987Z,62.64
2018-09-09T09:17:55.713Z,62.81
2018-09-09T09:18:55.755Z,62.75
2018-09-09T09:19:55.924Z,62.51
2018-09-09T09:20:56.280Z,62.84
2018-09-09T09:21:55.797Z,62.74
2018-09-09T09:22:55.920Z,62.49
2018-09-09T09:23:55.895Z,62.16
2018-09-09T09:24:55.804Z,62.03
2018-09-09T09:25:55.889Z,62.43
2018-09-09T09:26:56.154Z,62.71
2018-09-09T09:27:55.800Z,62.46
2018-09-09T09:28:55.734Z,61.63
2018-09-09T09:29:55.832Z,61.8
2018-09-09T09:30:55.765Z,61.59
2018-09-09T09:31:55.924Z,61.55
2018-09-09T09:32:55.714Z,61.31
2018-09-09T09:33:55.947Z,61.65
2018-09-09T09:34:55.917Z,62.07
2018-09-09T09:35:55.738Z,61.78
2018-09-09T09:36:55.753Z,61.75
2018-09-09T09:37:55.806Z,61.6
2018-09-09T09:38:56.141Z,61.17
2018-09-09T09:39:55.788Z,61.11
2018-09-09T09:40:55.999Z,60.72
2018-09-09T09:41:56.337Z,61.17
2018-09-09T09:42:55.955Z,60.81
2018-09-09T09:43:55.746Z,60.97
2018-09-09T09:44:55.775Z,61
2018-09-09T09:45:55.735Z,60.44
2018-09-09T09:46:55.964Z,60.29
2018-09-09T09:47:55.776Z,59.98
2018-09-09T09:48:55.738Z,59.57
2018-09-09T09:49:55.970Z,59.24
2018-09-09T09:50:55.722Z,59.73
2018-09-09T09:51:55.754Z,59.75
2018-09-09T09:52:55.897Z,59.73
2018-09-09T09:53:55.978Z,59.92
2018-09-09T09:54:55.896Z,59.91
2018-09-09T09:55:55.749Z,59.57
2018-09-09T09:56:55.896Z,59.24
2018-09-09T09:57:55.979Z,59.42
2018-09-09T09:58:55.743Z,59.15
2018-09-09T09:59:55.780Z,59.34
2018-09-09T10:00:55.771Z,59.61
2018-09-09T10:01:55.927Z,58.39
2018-09-09T10:02:56.010Z,57.87
2018-09-09T10:03:55.749Z,57.67
2018-09-09T10:04:56.046Z,57.81
2018-09-09T10:05:55.795Z,57.14
2018-09-09T10:06:55.743Z,57.02
2018-09-09T10:07:55.753Z,56.88
2018-09-09T10:08:55.793Z,57.35
2018-09-09T10:09:55.775Z,57.88
2018-09-09T10:10:55.847Z,57.42
2018-09-09T10:11:55.817Z,57.48
2018-09-09T10:12:55.764Z,57.45
2018-09-09T10:13:55.872Z,56.53
2018-09-09T10:14:55.811Z,56.33
2018-09-09T10:15:55.858Z,55.89
2018-09-09T10:16:55.764Z,56.02
2018-09-09T10:17:55.765Z,56.42
2018-09-09T10:18:56.218Z,56.72
2018-09-09T10:19:55.780Z,55.71
2018-09-09T10:20:55.774Z,56.12
2018-09-09T10:21:55.765Z,55.84
2018-09-09T10:22:55.753Z,56.38
2018-09-09T10:23:56.080Z,56.15
2018-09-09T10:24:55.837Z,56.09
2018-09-09T10:25:55.796Z,55.85
2018-09-09T10:26:55.934Z,54.73
2018-09-09T10:27:55.945Z,55.23
2018-09-09T10:28:55.832Z,54.31
2018-09-09T10:29:56.947Z,54.14
2018-09-09T10:30:56.070Z,54.09
2018-09-09T10:31:55.839Z,53.95
2018-09-09T10:32:55.973Z,53.99
2018-09-09T10:33:55.987Z,53.94
2018-09-09T10:34:56.093Z,54.31
2018-09-09T10:35:56.821Z,53.11
2018-09-09T10:36:55.781Z,53.32
2018-09-09T10:37:55.906Z,54.47
2018-09-09T10:38:57.434Z,53.94
2018-09-09T10:39:55.787Z,54
2018-09-09T10:40:56.045Z,53.11
2018-09-09T10:41:55.987Z,53.58
2018-09-09T10:42:55.838Z,53.26
2018-09-09T10:43:55.954Z,53.41
2018-09-09T10:44:55.954Z,53.11
2018-09-09T10:45:56.064Z,53.4
2018-09-09T10:46:57.252Z,53.44
2018-09-09T10:47:56.092Z,52.09
2018-09-09T10:48:56.085Z,52.35
2018-09-09T10:49:56.094Z,51.21
2018-09-09T10:50:56.095Z,51.83
2018-09-09T10:51:55.901Z,52.05
2018-09-09T10:52:55.982Z,52.12
2018-09-09T10:53:56.540Z,51.88
2018-09-09T10:54:57.487Z,51.87
2018-09-09T10:55:55.798Z,51.89
2018-09-09T10:56:55.937Z,52.53
2018-09-09T10:57:56.017Z,51.73
2018-09-09T10:58:55.903Z,50.52
2018-09-09T10:59:55.955Z,50.67
2018-09-09T11:00:55.964Z,51.48
2018-09-09T11:01:55.925Z,51.55
2018-09-09T11:02:55.929Z,52.13
2018-09-09T11:03:55.913Z,51.35
2018-09-09T11:04:56.101Z,51.24
2018-09-09T11:05:55.882Z,51.32
2018-09-09T11:06:56.194Z,49.71
2018-09-09T11:07:55.953Z,49.31
2018-09-09T11:08:55.916Z,49.65
2018-09-09T11:09:55.819Z,49.58
2018-09-09T11:10:55.843Z,49.4
2018-09-09T11:11:56.559Z,49.5
2018-09-09T11:12:57.525Z,50.34
2018-09-09T11:13:55.851Z,50.36
2018-09-09T11:14:55.859Z,50.21
2018-09-09T11:15:56.066Z,50.75
2018-09-09T11:16:56.099Z,50.57
2018-09-09T11:17:55.991Z,50.51
2018-09-09T11:18:55.963Z,49.44
2018-09-09T11:19:57.223Z,49.36
2018-09-09T11:20:55.981Z,49.59
2018-09-09T11:21:55.836Z,49.56
2018-09-09T11:22:55.963Z,48.9
2018-09-09T11:23:56.266Z,48.46
2018-09-09T11:24:55.947Z,48.44
2018-09-09T11:25:56.341Z,48.37
2018-09-09T11:26:55.961Z,48.45
2018-09-09T11:27:55.895Z,48.04
2018-09-09T11:28:55.828Z,48.27
2018-09-09T11:29:56.014Z,48.63
2018-09-09T11:30:57.906Z,48.53
2018-09-09T11:31:55.910Z,48.23
2018-09-09T11:32:55.814Z,49
2018-09-09T11:33:55.834Z,49.62
2018-09-09T11:34:55.992Z,49.65
2018-09-09T11:35:55.971Z,49.83
2018-09-09T11:36:55.917Z,49.8
2018-09-09T11:37:55.829Z,49.18
2018-09-09T11:38:56.018Z,49.25
2018-09-09T11:39:55.861Z,49.29
2018-09-09T11:40:55.991Z,48.85
2018-09-09T11:41:55.938Z,48.52
2018-09-09T11:42:55.884Z,48.51
2018-09-09T11:43:55.956Z,48.74
2018-09-09T11:44:56.191Z,48.59
2018-09-09T11:45:55.870Z,47.73
2018-09-09T11:46:55.927Z,46.55
2018-09-09T11:47:55.841Z,45.01
2018-09-09T11:48:55.902Z,45.61
2018-09-09T11:49:56.106Z,45.14
2018-09-09T11:50:55.883Z,45.29
2018-09-09T11:51:55.905Z,45.45
2018-09-09T11:52:55.853Z,45.95
2018-09-09T11:53:55.936Z,45.54
2018-09-09T11:54:56.057Z,45.96
2018-09-09T11:55:56.376Z,45.9
2018-09-09T11:56:57.179Z,45.83
2018-09-09T11:57:55.930Z,45.73
2018-09-09T11:58:56.313Z,44.66
2018-09-09T11:59:55.869Z,45.68
2018-09-09T12:00:55.953Z,45.63
2018-09-09T12:01:55.842Z,45.74
2018-09-09T12:02:56.126Z,46.14
2018-09-09T12:03:56.089Z,45.28
2018-09-09T12:04:56.150Z,45.89
2018-09-09T12:05:56.059Z,45.5
2018-09-09T12:06:55.993Z,45.89
2018-09-09T12:07:55.965Z,45.68
2018-09-09T12:08:55.920Z,46.46
2018-09-09T12:09:55.932Z,46.05
2018-09-09T12:10:56.034Z,46.34
2018-09-09T12:11:56.042Z,45.32
2018-09-09T12:12:56.258Z,44.78
2018-09-09T12:13:56.094Z,43.29
2018-09-09T12:14:56.069Z,42.58
2018-09-09T12:15:56.036Z,39.73
2018-09-09T12:16:55.997Z,40.4
2018-09-09T12:17:56.120Z,40.13
2018-09-09T12:18:56.299Z,39.71
2018-09-09T12:19:57.526Z,39.15
2018-09-09T12:20:55.906Z,38.37
2018-09-09T12:21:55.847Z,37.51
2018-09-09T12:22:56.335Z,38.22
2018-09-09T12:23:56.950Z,38.35
2018-09-09T12:24:56.069Z,39.45
2018-09-09T12:25:55.913Z,39.65
2018-09-09T12:26:56.045Z,40.04
2018-09-09T12:27:56.090Z,40.47
2018-09-09T12:28:55.990Z,38.49
2018-09-09T12:29:56.002Z,37.21
2018-09-09T12:30:56.078Z,38.07
2018-09-09T12:31:55.874Z,38.67
2018-09-09T12:32:55.997Z,38.34
2018-09-09T12:33:55.874Z,38.75
2018-09-09T12:34:56.512Z,38.14
2018-09-09T12:35:56.600Z,38.78
2018-09-09T12:36:56.055Z,38.98
2018-09-09T12:37:55.853Z,39.62
2018-09-09T12:38:56.104Z,39.29
2018-09-09T12:39:56.099Z,39.14
2018-09-09T12:40:55.931Z,39.19
2018-09-09T12:41:56.146Z,37.98
2018-09-09T12:42:55.953Z,38.45
2018-09-09T12:43:55.948Z,38.11
2018-09-09T12:44:55.988Z,37.53
2018-09-09T12:45:56.068Z,38.57
2018-09-09T12:46:56.076Z,39.21
2018-09-09T12:47:55.966Z,38.74
2018-09-09T12:48:56.137Z,38.42
2018-09-09T12:49:56.095Z,39.07
2018-09-09T12:50:57.849Z,38.52
2018-09-09T12:51:55.969Z,37.97
2018-09-09T12:52:55.962Z,38.25
2018-09-09T12:53:55.921Z,38.41
2018-09-09T12:54:55.910Z,38.03
2018-09-09T12:55:55.945Z,37.42